Flight Track Log - Related Links

Times and Time Zones

All times are in EDT time to prevent confusion due to time zone crossing. See the RPA3242 flight status page for this flight to view local times or setup timezone preferences in your user account.

Time Position Orientation Groundspeed Altitude Reporting Facility
EDT Latitude Longitude Course Direction KTS MPH feet Rate Location/Type
Sun 06:21:37 PM 42.2258 -83.3558 78° East 145 167 1,400  Level Cleveland Center
Sun 06:21:50 PM 42.2328 -83.3483 39° Northeast 149 171 1,800 1,541 Climbing Cleveland Center
Sun 06:22:51 PM 42.2800 -83.3069 33° Northeast 235 270 3,300 1,403 Climbing Cleveland Center
Sun 06:23:07 PM 42.2894 -83.2953 42° Northeast 236 272 3,600 2,754 Climbing Cleveland Center
Sun 06:23:52 PM 42.3453 -83.2456 33° Northeast 294 338 6,100 2,806 Climbing Cleveland Center
Sun 06:24:00 PM 42.0930 -82.8690 90° East  Level Estimated
Sun 06:24:09 PM 42.3525 -83.2375 39° Northeast 272 313 6,500  Level Cleveland Center
Sun 06:24:53 PM 42.3719 -83.1447 74° East 317 365 9,100 2,806 Climbing Cleveland Center
Sun 06:25:00 PM 42.0629 -82.7483 96° East  Level Estimated
Sun 06:25:11 PM 42.3675 -83.1317 115° Southeast 300 345 9,400  Level Cleveland Center
Sun 06:26:00 PM 42.0825 -82.6236 78° East  Level FlightAware Approximate
Sun 06:26:13 PM 42.3422 -83.0089 106° East 329 379 10,000  Level Cleveland Center
Sun 06:27:16 PM 42.3103 -82.8589 106° East 344 396 10,400 1,248 Climbing Cleveland Center
Sun 06:28:18 PM 42.2828 -82.7283 106° East 357 411 12,600 2,323 Climbing Cleveland Center
Sun 06:29:20 PM 42.2533 -82.5911 106° East 374 430 15,200 2,323 Climbing Cleveland Center
Sun 06:30:22 PM 42.2244 -82.4492 105° East 390 449 17,400 1,887 Climbing Cleveland Center
Sun 06:31:24 PM 42.2119 -82.2983 96° East 403 464 19,100 1,645 Climbing Cleveland Center
Sun 06:32:26 PM 42.2014 -82.1319 95° East 425 489 20,800 1,645 Climbing Cleveland Center
Sun 06:33:28 PM 42.1853 -81.9683 98° East 433 498 22,500 1,597 Climbing Cleveland Center
Sun 06:34:30 PM 42.0958 -81.8264 130° Southeast 423 487 24,100 1,452 Climbing Cleveland Center
Sun 06:35:32 PM 42.0044 -81.7222 140° Southeast 424 488 25,500 1,258 Climbing Cleveland Center
Sun 06:36:34 PM 41.9117 -81.6153 139° Southeast 433 498 26,700 1,113 Climbing Cleveland Center
Sun 06:37:36 PM 41.8175 -81.5058 139° Southeast 441 507 27,800 1,161 Climbing Cleveland Center
Sun 06:38:38 PM 41.7197 -81.3953 140° Southeast 450 518 29,100 1,161 Climbing Cleveland Center
Sun 06:39:40 PM 41.6206 -81.2819 139° Southeast 459 528 30,200 919 Climbing Cleveland Center
Sun 06:40:42 PM 41.5203 -81.1664 139° Southeast 467 537 31,000 387 Climbing Cleveland Center
Sun 06:41:44 PM 41.4281 -81.0408 134° Southeast 467 537 31,000  Level Cleveland Center
Sun 06:42:46 PM 41.3372 -80.9133 133° Southeast 466 536 31,000  Level Cleveland Center
Sun 06:43:48 PM 41.2306 -80.7672 134° Southeast 467 537 31,000  Level Cleveland Center
Sun 06:44:51 PM 41.1389 -80.6425 134° Southeast 466 536 31,000  Level Cleveland Center
Sun 06:45:53 PM 41.0503 -80.5231 135° Southeast 466 536 31,000  Level Cleveland Center
Sun 06:46:55 PM 40.9606 -80.3986 134° Southeast 466 536 31,000  Level Cleveland Center
Sun 06:47:57 PM 40.8558 -80.2556 134° Southeast 468 539 31,000 -484 Level Cleveland Center
Sun 06:48:59 PM 40.7667 -80.1336 134° Southeast 467 537 30,000 -484 Descending Cleveland Center
Sun 06:50:01 PM 40.6794 -80.0114 133° Southeast 464 534 30,000  Level Cleveland Center
Sun 06:51:03 PM 40.5978 -79.8617 126° Southeast 468 539 30,000  Level Cleveland Center
Sun 06:52:05 PM 40.5517 -79.6975 110° East 476 548 30,000  Level Cleveland Center
Sun 06:53:07 PM 40.5075 -79.5317 109° East 478 550 30,000  Level Cleveland Center
Sun 06:54:09 PM 40.4619 -79.3667 110° East 479 551 30,000  Level Cleveland Center
Sun 06:55:11 PM 40.4172 -79.1964 109° East 475 547 30,000  Level Cleveland Center
Sun 06:56:13 PM 40.3719 -79.0353 110° East 477 549 30,000  Level Cleveland Center
Sun 06:57:15 PM 40.3211 -78.8403 109° East 477 549 30,000  Level Cleveland Center
Sun 06:58:17 PM 40.3164 -78.6681 92° East 480 552 30,000  Level Cleveland Center
Sun 06:59:20 PM 40.3161 -78.4961 90° East 479 551 30,000 -240 Level Cleveland Center
Sun 07:00:22 PM 40.3153 -78.3236 90° East 479 551 29,500 -1,452 Descending Cleveland Center
Sun 07:01:24 PM 40.3142 -78.1469 90° East 488 562 27,000 -2,177 Descending Cleveland Center
Sun 07:02:26 PM 40.3119 -77.9317 91° East 495 570 25,000 -968 Descending Cleveland Center
Sun 07:03:28 PM 40.3125 -77.7569 90° East 489 563 25,000 -1,161 Level Cleveland Center
Sun 07:04:30 PM 40.3089 -77.5831 92° East 484 557 22,600 -2,441 Descending Cleveland Center
Sun 07:05:26 PM 40.3494 -77.4192 72° East 461 531 20,200 -2,483 Descending New York Center
Sun 07:06:26 PM 40.3350 -77.2653 97° East 415 478 17,800 -2,150 Descending New York Center
Sun 07:07:26 PM 40.3067 -77.1375 106° East 415 478 15,900 -900 Descending New York Center
Sun 07:08:26 PM 40.2733 -76.9792 105° East 415 478 16,000 50 Climbing New York Center
Sun 07:09:26 PM 40.2447 -76.8489 106° East 408 470 16,000  Level New York Center
Sun 07:10:26 PM 40.2144 -76.7047 105° East 408 470 16,000  Level New York Center
Sun 07:11:26 PM 40.1819 -76.5633 107° East 385 443 16,000  Level New York Center
Sun 07:12:26 PM 40.1558 -76.4525 107° East 337 388 16,000 -250 Level New York Center
Sun 07:13:26 PM 40.1336 -76.3531 106° East 294 338 15,500 -700 Descending New York Center
Sun 07:14:26 PM 40.1211 -76.2650 100° East 280 322 14,600 -1,000 Descending New York Center
Sun 07:15:26 PM 40.1114 -76.1558 97° East 275 316 13,500 -1,000 Descending New York Center
Sun 07:16:26 PM 40.1056 -76.0550 94° East 275 316 12,600 -750 Descending New York Center
Sun 07:17:26 PM 40.0975 -75.9567 96° East 275 316 12,000 -250 Descending New York Center
Sun 07:18:26 PM 40.0889 -75.8664 97° East 275 316 12,100 50 Climbing New York Center
Sun 07:19:26 PM 40.0811 -75.7572 95° East 275 316 12,100  Level New York Center
Sun 07:20:26 PM 40.1114 -75.6833 62° Northeast 257 296 12,100 -500 Level New York Center
Sun 07:21:26 PM 40.1478 -75.7539 304° West 150 173 11,100 -1,000 Descending New York Center
Sun 07:22:26 PM 40.1511 -75.8275 273° West 150 173 10,100 -500 Descending New York Center
Sun 07:23:26 PM 40.1114 -75.8761 223° Southwest 215 247 10,100 -400 Level New York Center
Sun 07:24:26 PM 40.0811 -75.8061 119° Southeast 123 142 9,300 -900 Descending New York Center
Sun 07:25:26 PM 40.0792 -75.7056 91° East 154 177 8,300 -1,200 Descending New York Center
Sun 07:26:26 PM 40.0744 -75.6158 94° East 233 268 6,900 -1,100 Descending New York Center
Sun 07:27:26 PM 40.0678 -75.5231 95° East 249 287 6,100 -400 Descending New York Center
Sun 07:28:26 PM 40.0653 -75.4306 92° East 249 287 6,100  Level New York Center
Sun 07:29:31 PM 40.0667 -75.3333 89° East 253 291 6,100  Level Philadelphia TRACON
Sun 07:30:19 PM 40.0667 -75.2500 90° East 255 293 6,100  Level Philadelphia TRACON
Sun 07:31:20 PM 40.0167 -75.2000 143° Southeast 221 254 6,100 -50 Level Philadelphia TRACON
Sun 07:32:20 PM 39.9833 -75.1333 123° Southeast 217 250 6,000 -624 Descending Philadelphia TRACON
Sun 07:33:25 PM 40.0000 -75.0667 72° East 201 231 4,800 -1,152 Descending Philadelphia TRACON
Sun 07:34:25 PM 40.0167 -75.0000 72° East 193 222 3,600 -843 Descending Philadelphia TRACON
Sun 07:35:26 PM 39.9833 -74.9500 131° Southeast 171 197 3,100 -678 Descending Philadelphia TRACON
Sun 07:36:20 PM 39.9500 -74.9667 201° Southwest 157 181 2,300 -474 Descending Philadelphia TRACON
Sun 07:37:20 PM 39.9167 -75.0000 217° Southwest 163 188 2,200 -48 Descending Philadelphia TRACON
Sun 07:38:26 PM 39.9000 -75.0667 252° West 164 189 2,200 -286 Level Philadelphia TRACON
Sun 07:39:26 PM 39.9000 -75.1167 270° West 142 163 1,600 -632 Descending Philadelphia TRACON
Sun 07:40:20 PM 39.8833 -75.1667 247° West 136 157 1,000 -684 Descending Philadelphia TRACON
Sun 07:41:20 PM 39.8833 -75.2167 270° West 138 159 300 -700 Descending Philadelphia TRACON

Login

Don't have an account? Register now (free) for customized features, flight alerts, and more!